sensor_id;sensor_type;location;lat;lon;timestamp;P1;durP1;ratioP1;P2;durP2;ratioP2
61252;SDS011;47127;47.516;8.596;2022-07-17T00:02:21;4.05;;;1.65;;
61252;SDS011;47127;47.516;8.596;2022-07-17T00:04:46;2.22;;;1.25;;
61252;SDS011;47127;47.516;8.596;2022-07-17T00:07:12;3.42;;;1.45;;
61252;SDS011;47127;47.516;8.596;2022-07-17T00:09:38;5.20;;;1.40;;
61252;SDS011;47127;47.516;8.596;2022-07-17T00:12:03;4.03;;;1.45;;
61252;SDS011;47127;47.516;8.596;2022-07-17T00:14:29;2.72;;;1.35;;
61252;SDS011;47127;47.516;8.596;2022-07-17T00:16:55;2.38;;;1.40;;
61252;SDS011;47127;47.516;8.596;2022-07-17T00:19:22;6.53;;;1.70;;
61252;SDS011;47127;47.516;8.596;2022-07-17T00:21:48;3.42;;;1.60;;
61252;SDS011;47127;47.516;8.596;2022-07-17T00:24:14;2.97;;;1.40;;
61252;SDS011;47127;47.516;8.596;2022-07-17T00:26:45;4.45;;;1.80;;
61252;SDS011;47127;47.516;8.596;2022-07-17T00:29:11;4.40;;;1.58;;
61252;SDS011;47127;47.516;8.596;2022-07-17T00:31:37;2.42;;;1.42;;
61252;SDS011;47127;47.516;8.596;2022-07-17T00:34:02;4.85;;;1.88;;
61252;SDS011;47127;47.516;8.596;2022-07-17T00:36:28;5.13;;;2.10;;
61252;SDS011;47127;47.516;8.596;2022-07-17T00:38:54;3.45;;;1.80;;
61252;SDS011;47127;47.516;8.596;2022-07-17T00:41:19;5.43;;;1.63;;
61252;SDS011;47127;47.516;8.596;2022-07-17T00:43:45;5.55;;;1.55;;
61252;SDS011;47127;47.516;8.596;2022-07-17T00:46:12;7.53;;;1.83;;
61252;SDS011;47127;47.516;8.596;2022-07-17T00:48:37;2.47;;;1.70;;
61252;SDS011;47127;47.516;8.596;2022-07-17T00:51:03;4.43;;;1.58;;
61252;SDS011;47127;47.516;8.596;2022-07-17T00:53:30;3.97;;;1.67;;
61252;SDS011;47127;47.516;8.596;2022-07-17T00:55:58;5.95;;;1.48;;
61252;SDS011;47127;47.516;8.596;2022-07-17T00:58:26;6.85;;;1.50;;
61252;SDS011;47127;47.516;8.596;2022-07-17T01:00:54;6.05;;;1.70;;
61252;SDS011;47127;47.516;8.596;2022-07-17T01:03:21;3.70;;;1.60;;
61252;SDS011;47127;47.516;8.596;2022-07-17T01:05:48;7.18;;;1.60;;
61252;SDS011;47127;47.516;8.596;2022-07-17T01:08:14;2.58;;;1.50;;
61252;SDS011;47127;47.516;8.596;2022-07-17T01:10:40;6.93;;;1.70;;
61252;SDS011;47127;47.516;8.596;2022-07-17T01:13:06;3.95;;;1.58;;
61252;SDS011;47127;47.516;8.596;2022-07-17T01:15:32;3.28;;;1.40;;
61252;SDS011;47127;47.516;8.596;2022-07-17T01:18:03;5.05;;;1.63;;
61252;SDS011;47127;47.516;8.596;2022-07-17T01:20:33;3.47;;;1.63;;
61252;SDS011;47127;47.516;8.596;2022-07-17T01:23:00;5.25;;;1.50;;
61252;SDS011;47127;47.516;8.596;2022-07-17T01:25:26;6.40;;;1.70;;
61252;SDS011;47127;47.516;8.596;2022-07-17T01:27:52;5.40;;;1.67;;
61252;SDS011;47127;47.516;8.596;2022-07-17T01:30:18;4.28;;;1.70;;
61252;SDS011;47127;47.516;8.596;2022-07-17T01:32:43;3.97;;;1.23;;
61252;SDS011;47127;47.516;8.596;2022-07-17T01:35:10;4.40;;;1.45;;
61252;SDS011;47127;47.516;8.596;2022-07-17T01:37:37;4.50;;;1.55;;
61252;SDS011;47127;47.516;8.596;2022-07-17T01:40:03;2.85;;;1.60;;
61252;SDS011;47127;47.516;8.596;2022-07-17T01:42:30;3.35;;;1.50;;
61252;SDS011;47127;47.516;8.596;2022-07-17T01:44:56;4.68;;;1.55;;
61252;SDS011;47127;47.516;8.596;2022-07-17T01:47:22;3.03;;;1.60;;
61252;SDS011;47127;47.516;8.596;2022-07-17T01:49:50;5.55;;;2.00;;
61252;SDS011;47127;47.516;8.596;2022-07-17T01:52:18;6.93;;;1.55;;
61252;SDS011;47127;47.516;8.596;2022-07-17T01:54:44;4.55;;;1.75;;
61252;SDS011;47127;47.516;8.596;2022-07-17T01:57:10;6.05;;;1.92;;
61252;SDS011;47127;47.516;8.596;2022-07-17T01:59:37;4.93;;;1.65;;
61252;SDS011;47127;47.516;8.596;2022-07-17T02:02:05;5.18;;;1.75;;
61252;SDS011;47127;47.516;8.596;2022-07-17T02:04:32;6.35;;;1.92;;
61252;SDS011;47127;47.516;8.596;2022-07-17T02:06:59;7.13;;;2.03;;
61252;SDS011;47127;47.516;8.596;2022-07-17T02:09:24;8.07;;;1.80;;
61252;SDS011;47127;47.516;8.596;2022-07-17T02:11:50;11.50;;;1.98;;
61252;SDS011;47127;47.516;8.596;2022-07-17T02:14:16;3.15;;;1.55;;
61252;SDS011;47127;47.516;8.596;2022-07-17T02:16:41;4.78;;;1.70;;
61252;SDS011;47127;47.516;8.596;2022-07-17T02:19:07;5.15;;;1.90;;
61252;SDS011;47127;47.516;8.596;2022-07-17T02:21:33;4.22;;;2.03;;
61252;SDS011;47127;47.516;8.596;2022-07-17T02:23:58;4.97;;;2.33;;
61252;SDS011;47127;47.516;8.596;2022-07-17T02:26:24;6.38;;;2.15;;
61252;SDS011;47127;47.516;8.596;2022-07-17T02:28:49;4.07;;;2.00;;
61252;SDS011;47127;47.516;8.596;2022-07-17T02:31:15;6.45;;;2.08;;
61252;SDS011;47127;47.516;8.596;2022-07-17T02:33:41;3.75;;;1.80;;
61252;SDS011;47127;47.516;8.596;2022-07-17T02:36:06;6.30;;;2.00;;
61252;SDS011;47127;47.516;8.596;2022-07-17T02:38:32;3.15;;;1.80;;
61252;SDS011;47127;47.516;8.596;2022-07-17T02:40:58;4.65;;;1.73;;
61252;SDS011;47127;47.516;8.596;2022-07-17T02:43:24;4.78;;;1.75;;
61252;SDS011;47127;47.516;8.596;2022-07-17T02:45:52;5.65;;;1.98;;
61252;SDS011;47127;47.516;8.596;2022-07-17T02:48:18;3.65;;;1.60;;
61252;SDS011;47127;47.516;8.596;2022-07-17T02:50:43;4.30;;;2.10;;
61252;SDS011;47127;47.516;8.596;2022-07-17T02:53:09;4.80;;;2.00;;
61252;SDS011;47127;47.516;8.596;2022-07-17T02:55:34;3.38;;;1.58;;
61252;SDS011;47127;47.516;8.596;2022-07-17T02:58:00;3.15;;;1.92;;
61252;SDS011;47127;47.516;8.596;2022-07-17T03:00:26;5.18;;;1.92;;
61252;SDS011;47127;47.516;8.596;2022-07-17T03:02:54;5.85;;;2.10;;
61252;SDS011;47127;47.516;8.596;2022-07-17T03:05:23;3.53;;;1.55;;
61252;SDS011;47127;47.516;8.596;2022-07-17T03:07:48;5.93;;;2.25;;
61252;SDS011;47127;47.516;8.596;2022-07-17T03:10:14;5.57;;;1.80;;
61252;SDS011;47127;47.516;8.596;2022-07-17T03:12:40;3.63;;;1.77;;
61252;SDS011;47127;47.516;8.596;2022-07-17T03:15:07;4.53;;;1.80;;
61252;SDS011;47127;47.516;8.596;2022-07-17T03:17:33;6.43;;;1.90;;
61252;SDS011;47127;47.516;8.596;2022-07-17T03:19:59;9.10;;;2.17;;
61252;SDS011;47127;47.516;8.596;2022-07-17T03:22:24;5.05;;;1.85;;
61252;SDS011;47127;47.516;8.596;2022-07-17T03:24:50;4.30;;;2.00;;
61252;SDS011;47127;47.516;8.596;2022-07-17T03:27:16;4.97;;;2.03;;
61252;SDS011;47127;47.516;8.596;2022-07-17T03:29:42;6.28;;;2.20;;
61252;SDS011;47127;47.516;8.596;2022-07-17T03:32:08;6.65;;;2.15;;
61252;SDS011;47127;47.516;8.596;2022-07-17T03:34:34;5.93;;;2.00;;
61252;SDS011;47127;47.516;8.596;2022-07-17T03:36:59;4.93;;;1.90;;
61252;SDS011;47127;47.516;8.596;2022-07-17T03:39:25;3.78;;;1.90;;
61252;SDS011;47127;47.516;8.596;2022-07-17T03:41:50;6.25;;;2.15;;
61252;SDS011;47127;47.516;8.596;2022-07-17T03:44:16;5.85;;;2.05;;
61252;SDS011;47127;47.516;8.596;2022-07-17T03:46:42;6.80;;;2.20;;
61252;SDS011;47127;47.516;8.596;2022-07-17T03:49:07;3.80;;;2.00;;
61252;SDS011;47127;47.516;8.596;2022-07-17T03:51:35;6.20;;;2.00;;
61252;SDS011;47127;47.516;8.596;2022-07-17T03:54:01;5.88;;;2.10;;
61252;SDS011;47127;47.516;8.596;2022-07-17T03:56:26;4.88;;;1.92;;
61252;SDS011;47127;47.516;8.596;2022-07-17T03:58:52;7.40;;;2.50;;
61252;SDS011;47127;47.516;8.596;2022-07-17T04:01:18;12.07;;;2.38;;
61252;SDS011;47127;47.516;8.596;2022-07-17T04:03:43;5.30;;;2.22;;
61252;SDS011;47127;47.516;8.596;2022-07-17T04:06:09;4.65;;;1.95;;
61252;SDS011;47127;47.516;8.596;2022-07-17T04:08:35;5.00;;;2.13;;
61252;SDS011;47127;47.516;8.596;2022-07-17T04:11:00;3.70;;;2.22;;
61252;SDS011;47127;47.516;8.596;2022-07-17T04:13:26;5.90;;;2.15;;
61252;SDS011;47127;47.516;8.596;2022-07-17T04:15:52;4.90;;;2.17;;
61252;SDS011;47127;47.516;8.596;2022-07-17T04:18:28;7.85;;;2.40;;
61252;SDS011;47127;47.516;8.596;2022-07-17T04:20:56;5.72;;;1.88;;
61252;SDS011;47127;47.516;8.596;2022-07-17T04:23:23;4.28;;;2.20;;
61252;SDS011;47127;47.516;8.596;2022-07-17T04:25:49;5.60;;;2.03;;
61252;SDS011;47127;47.516;8.596;2022-07-17T04:28:15;9.50;;;2.58;;
61252;SDS011;47127;47.516;8.596;2022-07-17T04:30:41;5.88;;;2.00;;
61252;SDS011;47127;47.516;8.596;2022-07-17T04:33:07;6.47;;;1.90;;
61252;SDS011;47127;47.516;8.596;2022-07-17T04:35:33;5.60;;;2.20;;
61252;SDS011;47127;47.516;8.596;2022-07-17T04:37:58;4.90;;;2.10;;
61252;SDS011;47127;47.516;8.596;2022-07-17T04:40:24;5.38;;;1.95;;
61252;SDS011;47127;47.516;8.596;2022-07-17T04:42:50;4.38;;;2.13;;
61252;SDS011;47127;47.516;8.596;2022-07-17T04:45:15;7.15;;;2.58;;
61252;SDS011;47127;47.516;8.596;2022-07-17T04:47:41;3.75;;;2.10;;
61252;SDS011;47127;47.516;8.596;2022-07-17T04:50:08;6.90;;;2.60;;
61252;SDS011;47127;47.516;8.596;2022-07-17T04:52:34;6.50;;;2.78;;
61252;SDS011;47127;47.516;8.596;2022-07-17T04:55:00;6.50;;;2.30;;
61252;SDS011;47127;47.516;8.596;2022-07-17T04:57:25;5.55;;;1.90;;
61252;SDS011;47127;47.516;8.596;2022-07-17T04:59:51;5.28;;;2.40;;
61252;SDS011;47127;47.516;8.596;2022-07-17T05:02:17;7.28;;;2.20;;
61252;SDS011;47127;47.516;8.596;2022-07-17T05:04:42;7.07;;;2.17;;
61252;SDS011;47127;47.516;8.596;2022-07-17T05:07:08;5.45;;;2.42;;
61252;SDS011;47127;47.516;8.596;2022-07-17T05:09:34;3.42;;;1.92;;
61252;SDS011;47127;47.516;8.596;2022-07-17T05:12:00;5.90;;;2.10;;
61252;SDS011;47127;47.516;8.596;2022-07-17T05:14:26;3.10;;;1.95;;
61252;SDS011;47127;47.516;8.596;2022-07-17T05:16:51;11.25;;;2.92;;
61252;SDS011;47127;47.516;8.596;2022-07-17T05:19:17;5.85;;;2.50;;
61252;SDS011;47127;47.516;8.596;2022-07-17T05:21:42;3.90;;;1.90;;
61252;SDS011;47127;47.516;8.596;2022-07-17T05:24:08;5.32;;;2.20;;
61252;SDS011;47127;47.516;8.596;2022-07-17T05:26:33;6.25;;;2.33;;
61252;SDS011;47127;47.516;8.596;2022-07-17T05:28:59;6.50;;;2.38;;
61252;SDS011;47127;47.516;8.596;2022-07-17T05:31:25;7.20;;;2.53;;
61252;SDS011;47127;47.516;8.596;2022-07-17T05:33:50;5.45;;;2.40;;
61252;SDS011;47127;47.516;8.596;2022-07-17T05:36:16;3.90;;;2.05;;
61252;SDS011;47127;47.516;8.596;2022-07-17T05:38:41;6.13;;;2.50;;
61252;SDS011;47127;47.516;8.596;2022-07-17T05:41:07;7.50;;;2.78;;
61252;SDS011;47127;47.516;8.596;2022-07-17T05:43:32;4.28;;;1.98;;
61252;SDS011;47127;47.516;8.596;2022-07-17T05:45:58;5.40;;;2.05;;
61252;SDS011;47127;47.516;8.596;2022-07-17T05:48:24;5.28;;;2.28;;
61252;SDS011;47127;47.516;8.596;2022-07-17T05:50:51;6.25;;;2.40;;
61252;SDS011;47127;47.516;8.596;2022-07-17T05:53:16;6.07;;;2.05;;
61252;SDS011;47127;47.516;8.596;2022-07-17T05:55:42;6.85;;;2.40;;
61252;SDS011;47127;47.516;8.596;2022-07-17T05:58:08;7.13;;;2.80;;
61252;SDS011;47127;47.516;8.596;2022-07-17T06:00:35;4.35;;;2.30;;
61252;SDS011;47127;47.516;8.596;2022-07-17T06:03:01;4.72;;;2.17;;
61252;SDS011;47127;47.516;8.596;2022-07-17T06:05:27;6.97;;;2.38;;
61252;SDS011;47127;47.516;8.596;2022-07-17T06:07:53;4.00;;;2.10;;
61252;SDS011;47127;47.516;8.596;2022-07-17T06:10:20;4.88;;;1.98;;
61252;SDS011;47127;47.516;8.596;2022-07-17T06:12:46;4.95;;;2.28;;
61252;SDS011;47127;47.516;8.596;2022-07-17T06:15:12;3.45;;;2.00;;
61252;SDS011;47127;47.516;8.596;2022-07-17T06:17:38;4.75;;;1.95;;
61252;SDS011;47127;47.516;8.596;2022-07-17T06:20:04;3.90;;;1.80;;
61252;SDS011;47127;47.516;8.596;2022-07-17T06:22:30;3.58;;;1.92;;
61252;SDS011;47127;47.516;8.596;2022-07-17T06:24:56;5.22;;;2.17;;
61252;SDS011;47127;47.516;8.596;2022-07-17T06:27:21;8.48;;;2.35;;
61252;SDS011;47127;47.516;8.596;2022-07-17T06:29:47;4.88;;;2.15;;
61252;SDS011;47127;47.516;8.596;2022-07-17T06:32:13;7.28;;;2.30;;
61252;SDS011;47127;47.516;8.596;2022-07-17T06:34:39;6.75;;;2.25;;
61252;SDS011;47127;47.516;8.596;2022-07-17T06:37:04;5.47;;;2.08;;
61252;SDS011;47127;47.516;8.596;2022-07-17T06:39:30;8.50;;;2.10;;
61252;SDS011;47127;47.516;8.596;2022-07-17T06:41:56;5.47;;;2.08;;
61252;SDS011;47127;47.516;8.596;2022-07-17T06:44:21;6.45;;;2.28;;
61252;SDS011;47127;47.516;8.596;2022-07-17T06:46:48;5.25;;;2.10;;
61252;SDS011;47127;47.516;8.596;2022-07-17T06:49:14;3.25;;;1.98;;
61252;SDS011;47127;47.516;8.596;2022-07-17T06:51:39;3.70;;;1.85;;
61252;SDS011;47127;47.516;8.596;2022-07-17T06:54:05;9.82;;;2.00;;
61252;SDS011;47127;47.516;8.596;2022-07-17T06:56:31;4.80;;;1.70;;
61252;SDS011;47127;47.516;8.596;2022-07-17T06:58:56;7.00;;;2.20;;
61252;SDS011;47127;47.516;8.596;2022-07-17T07:01:22;4.72;;;2.10;;
61252;SDS011;47127;47.516;8.596;2022-07-17T07:03:48;3.63;;;2.00;;
61252;SDS011;47127;47.516;8.596;2022-07-17T07:06:13;7.10;;;2.13;;
61252;SDS011;47127;47.516;8.596;2022-07-17T07:08:39;4.20;;;2.10;;
61252;SDS011;47127;47.516;8.596;2022-07-17T07:11:05;11.25;;;3.40;;
61252;SDS011;47127;47.516;8.596;2022-07-17T07:13:31;14.27;;;4.25;;
61252;SDS011;47127;47.516;8.596;2022-07-17T07:15:57;14.23;;;2.58;;
61252;SDS011;47127;47.516;8.596;2022-07-17T07:18:23;5.43;;;2.13;;
61252;SDS011;47127;47.516;8.596;2022-07-17T07:20:48;5.10;;;2.10;;
61252;SDS011;47127;47.516;8.596;2022-07-17T07:23:14;6.85;;;1.70;;
61252;SDS011;47127;47.516;8.596;2022-07-17T07:25:40;5.63;;;2.35;;
61252;SDS011;47127;47.516;8.596;2022-07-17T07:28:05;7.15;;;2.15;;
61252;SDS011;47127;47.516;8.596;2022-07-17T07:30:31;7.15;;;2.28;;
61252;SDS011;47127;47.516;8.596;2022-07-17T07:32:57;3.25;;;1.80;;
61252;SDS011;47127;47.516;8.596;2022-07-17T07:35:22;3.17;;;1.52;;
61252;SDS011;47127;47.516;8.596;2022-07-17T07:37:48;4.28;;;1.77;;
61252;SDS011;47127;47.516;8.596;2022-07-17T07:40:14;4.15;;;1.70;;
61252;SDS011;47127;47.516;8.596;2022-07-17T07:42:40;3.80;;;1.80;;
61252;SDS011;47127;47.516;8.596;2022-07-17T07:45:06;4.50;;;2.00;;
61252;SDS011;47127;47.516;8.596;2022-07-17T07:47:32;4.68;;;1.98;;
61252;SDS011;47127;47.516;8.596;2022-07-17T07:49:58;5.72;;;2.00;;
61252;SDS011;47127;47.516;8.596;2022-07-17T07:52:23;4.03;;;1.50;;
61252;SDS011;47127;47.516;8.596;2022-07-17T07:54:49;3.90;;;1.90;;
61252;SDS011;47127;47.516;8.596;2022-07-17T07:57:15;4.00;;;1.92;;
61252;SDS011;47127;47.516;8.596;2022-07-17T07:59:40;5.35;;;1.95;;
61252;SDS011;47127;47.516;8.596;2022-07-17T08:02:06;5.65;;;1.98;;
61252;SDS011;47127;47.516;8.596;2022-07-17T08:04:32;4.70;;;1.80;;
61252;SDS011;47127;47.516;8.596;2022-07-17T08:06:57;4.28;;;1.65;;
61252;SDS011;47127;47.516;8.596;2022-07-17T08:09:23;5.75;;;1.88;;
61252;SDS011;47127;47.516;8.596;2022-07-17T08:11:49;3.58;;;1.70;;
61252;SDS011;47127;47.516;8.596;2022-07-17T08:14:14;4.63;;;1.75;;
61252;SDS011;47127;47.516;8.596;2022-07-17T08:16:41;4.65;;;1.90;;
61252;SDS011;47127;47.516;8.596;2022-07-17T08:19:07;4.20;;;1.58;;
61252;SDS011;47127;47.516;8.596;2022-07-17T08:21:33;7.57;;;1.88;;
61252;SDS011;47127;47.516;8.596;2022-07-17T08:23:58;3.83;;;1.70;;
61252;SDS011;47127;47.516;8.596;2022-07-17T08:26:24;3.53;;;1.77;;
61252;SDS011;47127;47.516;8.596;2022-07-17T08:28:49;3.25;;;1.63;;
61252;SDS011;47127;47.516;8.596;2022-07-17T08:31:15;5.50;;;1.73;;
61252;SDS011;47127;47.516;8.596;2022-07-17T08:33:40;3.42;;;1.63;;
61252;SDS011;47127;47.516;8.596;2022-07-17T08:36:06;4.78;;;1.70;;
61252;SDS011;47127;47.516;8.596;2022-07-17T08:38:32;4.18;;;2.00;;
61252;SDS011;47127;47.516;8.596;2022-07-17T08:40:58;3.03;;;1.60;;
61252;SDS011;47127;47.516;8.596;2022-07-17T08:43:24;3.97;;;1.88;;
61252;SDS011;47127;47.516;8.596;2022-07-17T08:45:50;9.20;;;1.80;;
61252;SDS011;47127;47.516;8.596;2022-07-17T08:48:17;3.22;;;1.50;;
61252;SDS011;47127;47.516;8.596;2022-07-17T08:50:44;5.00;;;1.70;;
61252;SDS011;47127;47.516;8.596;2022-07-17T08:53:11;5.28;;;1.90;;
61252;SDS011;47127;47.516;8.596;2022-07-17T08:55:36;5.70;;;1.85;;
61252;SDS011;47127;47.516;8.596;2022-07-17T08:58:02;6.20;;;1.65;;
61252;SDS011;47127;47.516;8.596;2022-07-17T09:00:29;4.53;;;1.83;;
61252;SDS011;47127;47.516;8.596;2022-07-17T09:02:59;4.38;;;1.63;;
61252;SDS011;47127;47.516;8.596;2022-07-17T09:05:36;4.18;;;1.77;;
61252;SDS011;47127;47.516;8.596;2022-07-17T09:08:04;4.53;;;1.75;;
61252;SDS011;47127;47.516;8.596;2022-07-17T09:10:38;4.93;;;1.80;;
61252;SDS011;47127;47.516;8.596;2022-07-17T09:15:41;8.80;;;1.55;;
61252;SDS011;47127;47.516;8.596;2022-07-17T09:18:07;6.43;;;1.77;;
61252;SDS011;47127;47.516;8.596;2022-07-17T09:20:32;2.60;;;1.70;;
61252;SDS011;47127;47.516;8.596;2022-07-17T09:23:02;5.82;;;2.00;;
61252;SDS011;47127;47.516;8.596;2022-07-17T09:25:33;4.25;;;1.45;;
61252;SDS011;47127;47.516;8.596;2022-07-17T09:28:06;5.50;;;1.58;;
61252;SDS011;47127;47.516;8.596;2022-07-17T09:30:38;4.45;;;1.77;;
61252;SDS011;47127;47.516;8.596;2022-07-17T09:33:12;4.97;;;1.60;;
61252;SDS011;47127;47.516;8.596;2022-07-17T09:35:56;3.95;;;1.65;;
61252;SDS011;47127;47.516;8.596;2022-07-17T09:41:01;11.48;;;1.70;;
61252;SDS011;47127;47.516;8.596;2022-07-17T09:43:40;5.00;;;1.40;;
61252;SDS011;47127;47.516;8.596;2022-07-17T09:46:15;4.85;;;1.80;;
61252;SDS011;47127;47.516;8.596;2022-07-17T09:48:44;5.05;;;1.52;;
61252;SDS011;47127;47.516;8.596;2022-07-17T09:51:15;4.80;;;1.70;;
61252;SDS011;47127;47.516;8.596;2022-07-17T09:53:44;3.50;;;1.45;;
61252;SDS011;47127;47.516;8.596;2022-07-17T09:56:15;4.38;;;1.60;;
61252;SDS011;47127;47.516;8.596;2022-07-17T09:58:45;5.28;;;1.65;;
61252;SDS011;47127;47.516;8.596;2022-07-17T10:01:15;2.97;;;1.40;;
61252;SDS011;47127;47.516;8.596;2022-07-17T10:03:41;3.17;;;1.50;;
61252;SDS011;47127;47.516;8.596;2022-07-17T10:06:08;3.60;;;1.70;;
61252;SDS011;47127;47.516;8.596;2022-07-17T10:08:37;4.70;;;1.50;;
61252;SDS011;47127;47.516;8.596;2022-07-17T10:11:07;3.55;;;1.42;;
61252;SDS011;47127;47.516;8.596;2022-07-17T10:13:36;6.63;;;1.60;;
61252;SDS011;47127;47.516;8.596;2022-07-17T10:16:04;2.95;;;1.42;;
61252;SDS011;47127;47.516;8.596;2022-07-17T10:18:40;6.20;;;1.52;;
61252;SDS011;47127;47.516;8.596;2022-07-17T10:21:14;3.53;;;1.50;;
61252;SDS011;47127;47.516;8.596;2022-07-17T10:23:43;2.80;;;1.40;;
61252;SDS011;47127;47.516;8.596;2022-07-17T10:26:12;3.00;;;1.38;;
61252;SDS011;47127;47.516;8.596;2022-07-17T10:28:40;4.28;;;1.40;;
61252;SDS011;47127;47.516;8.596;2022-07-17T10:31:06;3.55;;;1.65;;
61252;SDS011;47127;47.516;8.596;2022-07-17T10:33:32;5.72;;;1.65;;
61252;SDS011;47127;47.516;8.596;2022-07-17T10:35:58;3.42;;;1.45;;
61252;SDS011;47127;47.516;8.596;2022-07-17T10:38:24;4.78;;;1.50;;
61252;SDS011;47127;47.516;8.596;2022-07-17T10:41:01;4.43;;;1.45;;
61252;SDS011;47127;47.516;8.596;2022-07-17T10:43:38;3.88;;;1.40;;
61252;SDS011;47127;47.516;8.596;2022-07-17T10:46:08;3.95;;;1.88;;
61252;SDS011;47127;47.516;8.596;2022-07-17T10:48:33;3.30;;;1.55;;
61252;SDS011;47127;47.516;8.596;2022-07-17T10:50:59;3.08;;;1.30;;
61252;SDS011;47127;47.516;8.596;2022-07-17T10:53:28;4.20;;;1.80;;
61252;SDS011;47127;47.516;8.596;2022-07-17T10:55:59;3.30;;;1.33;;
61252;SDS011;47127;47.516;8.596;2022-07-17T10:58:42;4.80;;;1.45;;
61252;SDS011;47127;47.516;8.596;2022-07-17T11:01:10;5.15;;;1.27;;
61252;SDS011;47127;47.516;8.596;2022-07-17T11:03:51;2.53;;;1.40;;
61252;SDS011;47127;47.516;8.596;2022-07-17T11:06:19;1.85;;;1.40;;
61252;SDS011;47127;47.516;8.596;2022-07-17T11:08:50;4.18;;;1.52;;
61252;SDS011;47127;47.516;8.596;2022-07-17T11:14:11;3.40;;;1.50;;
61252;SDS011;47127;47.516;8.596;2022-07-17T11:16:51;14.45;;;1.83;;
61252;SDS011;47127;47.516;8.596;2022-07-17T11:19:21;3.05;;;1.65;;
61252;SDS011;47127;47.516;8.596;2022-07-17T11:21:51;8.80;;;1.70;;
61252;SDS011;47127;47.516;8.596;2022-07-17T11:24:17;6.93;;;1.63;;
61252;SDS011;47127;47.516;8.596;2022-07-17T11:26:43;2.25;;;1.15;;
61252;SDS011;47127;47.516;8.596;2022-07-17T11:29:09;2.63;;;1.40;;
61252;SDS011;47127;47.516;8.596;2022-07-17T11:31:35;5.88;;;1.95;;
61252;SDS011;47127;47.516;8.596;2022-07-17T11:34:03;3.70;;;1.60;;
61252;SDS011;47127;47.516;8.596;2022-07-17T11:36:34;2.35;;;1.27;;
61252;SDS011;47127;47.516;8.596;2022-07-17T11:39:06;2.63;;;1.60;;
61252;SDS011;47127;47.516;8.596;2022-07-17T11:44:04;6.43;;;1.70;;
61252;SDS011;47127;47.516;8.596;2022-07-17T11:46:31;4.03;;;1.92;;
61252;SDS011;47127;47.516;8.596;2022-07-17T11:48:58;7.57;;;1.70;;
61252;SDS011;47127;47.516;8.596;2022-07-17T11:51:38;5.50;;;1.45;;
61252;SDS011;47127;47.516;8.596;2022-07-17T11:54:12;3.47;;;1.45;;
61252;SDS011;47127;47.516;8.596;2022-07-17T11:56:40;3.30;;;1.52;;
61252;SDS011;47127;47.516;8.596;2022-07-17T11:59:07;2.97;;;1.70;;
61252;SDS011;47127;47.516;8.596;2022-07-17T12:01:43;2.22;;;1.50;;
61252;SDS011;47127;47.516;8.596;2022-07-17T12:04:14;2.90;;;1.50;;
61252;SDS011;47127;47.516;8.596;2022-07-17T12:06:40;2.22;;;1.30;;
61252;SDS011;47127;47.516;8.596;2022-07-17T12:09:06;4.28;;;1.55;;
61252;SDS011;47127;47.516;8.596;2022-07-17T12:11:32;5.97;;;1.83;;
61252;SDS011;47127;47.516;8.596;2022-07-17T12:14:09;4.20;;;1.83;;
61252;SDS011;47127;47.516;8.596;2022-07-17T12:16:35;3.97;;;1.55;;
61252;SDS011;47127;47.516;8.596;2022-07-17T12:19:08;3.90;;;1.50;;
61252;SDS011;47127;47.516;8.596;2022-07-17T12:24:41;4.67;;;2.00;;
61252;SDS011;47127;47.516;8.596;2022-07-17T12:27:06;10.00;;;1.77;;
61252;SDS011;47127;47.516;8.596;2022-07-17T12:29:34;2.35;;;1.75;;
61252;SDS011;47127;47.516;8.596;2022-07-17T12:32:03;4.40;;;1.70;;
61252;SDS011;47127;47.516;8.596;2022-07-17T12:34:30;3.05;;;1.90;;
61252;SDS011;47127;47.516;8.596;2022-07-17T12:36:55;4.53;;;1.77;;
61252;SDS011;47127;47.516;8.596;2022-07-17T12:39:21;6.15;;;2.25;;
61252;SDS011;47127;47.516;8.596;2022-07-17T12:41:46;2.22;;;1.38;;
61252;SDS011;47127;47.516;8.596;2022-07-17T12:44:12;6.00;;;1.73;;
61252;SDS011;47127;47.516;8.596;2022-07-17T12:46:38;3.00;;;1.48;;
61252;SDS011;47127;47.516;8.596;2022-07-17T12:49:03;6.20;;;1.60;;
61252;SDS011;47127;47.516;8.596;2022-07-17T12:51:29;3.40;;;1.92;;
61252;SDS011;47127;47.516;8.596;2022-07-17T12:53:56;4.43;;;1.92;;
61252;SDS011;47127;47.516;8.596;2022-07-17T12:56:22;3.75;;;1.83;;
61252;SDS011;47127;47.516;8.596;2022-07-17T12:58:48;2.97;;;1.60;;
61252;SDS011;47127;47.516;8.596;2022-07-17T13:01:14;3.13;;;1.80;;
61252;SDS011;47127;47.516;8.596;2022-07-17T13:03:41;8.50;;;2.05;;
61252;SDS011;47127;47.516;8.596;2022-07-17T13:06:07;4.05;;;1.60;;
61252;SDS011;47127;47.516;8.596;2022-07-17T13:08:33;2.50;;;1.30;;
61252;SDS011;47127;47.516;8.596;2022-07-17T13:10:59;3.80;;;1.40;;
61252;SDS011;47127;47.516;8.596;2022-07-17T13:13:24;3.30;;;1.55;;
61252;SDS011;47127;47.516;8.596;2022-07-17T13:15:50;3.00;;;1.50;;
61252;SDS011;47127;47.516;8.596;2022-07-17T13:18:16;4.78;;;1.65;;
61252;SDS011;47127;47.516;8.596;2022-07-17T13:20:41;4.47;;;2.03;;
61252;SDS011;47127;47.516;8.596;2022-07-17T13:23:07;5.25;;;1.40;;
61252;SDS011;47127;47.516;8.596;2022-07-17T13:25:33;3.33;;;1.65;;
61252;SDS011;47127;47.516;8.596;2022-07-17T13:27:59;4.15;;;1.80;;
61252;SDS011;47127;47.516;8.596;2022-07-17T13:30:24;2.58;;;1.50;;
61252;SDS011;47127;47.516;8.596;2022-07-17T13:32:51;2.15;;;1.50;;
61252;SDS011;47127;47.516;8.596;2022-07-17T13:35:18;3.20;;;1.58;;
61252;SDS011;47127;47.516;8.596;2022-07-17T13:37:44;4.45;;;1.63;;
61252;SDS011;47127;47.516;8.596;2022-07-17T13:40:10;5.32;;;2.15;;
61252;SDS011;47127;47.516;8.596;2022-07-17T13:42:35;3.85;;;1.40;;
61252;SDS011;47127;47.516;8.596;2022-07-17T13:45:02;3.33;;;1.45;;
61252;SDS011;47127;47.516;8.596;2022-07-17T13:47:28;3.70;;;1.50;;
61252;SDS011;47127;47.516;8.596;2022-07-17T13:49:54;2.92;;;1.23;;
61252;SDS011;47127;47.516;8.596;2022-07-17T13:52:20;3.97;;;1.58;;
61252;SDS011;47127;47.516;8.596;2022-07-17T13:54:46;3.15;;;1.42;;
61252;SDS011;47127;47.516;8.596;2022-07-17T13:57:12;3.63;;;1.38;;
61252;SDS011;47127;47.516;8.596;2022-07-17T13:59:37;2.72;;;1.30;;
61252;SDS011;47127;47.516;8.596;2022-07-17T14:02:03;6.63;;;1.50;;
61252;SDS011;47127;47.516;8.596;2022-07-17T14:04:29;3.10;;;1.40;;
61252;SDS011;47127;47.516;8.596;2022-07-17T14:06:54;2.38;;;1.42;;
61252;SDS011;47127;47.516;8.596;2022-07-17T14:09:20;3.78;;;1.20;;
61252;SDS011;47127;47.516;8.596;2022-07-17T14:11:46;5.28;;;1.55;;
61252;SDS011;47127;47.516;8.596;2022-07-17T14:14:11;4.68;;;1.58;;
61252;SDS011;47127;47.516;8.596;2022-07-17T14:16:37;2.00;;;1.30;;
61252;SDS011;47127;47.516;8.596;2022-07-17T14:19:02;10.43;;;1.65;;
61252;SDS011;47127;47.516;8.596;2022-07-17T14:21:28;3.25;;;1.55;;
61252;SDS011;47127;47.516;8.596;2022-07-17T14:23:56;3.50;;;1.70;;
61252;SDS011;47127;47.516;8.596;2022-07-17T14:26:22;3.53;;;1.45;;
61252;SDS011;47127;47.516;8.596;2022-07-17T14:28:48;2.50;;;1.50;;
61252;SDS011;47127;47.516;8.596;2022-07-17T14:31:14;6.05;;;1.50;;
61252;SDS011;47127;47.516;8.596;2022-07-17T14:33:42;6.93;;;1.48;;
61252;SDS011;47127;47.516;8.596;2022-07-17T14:36:09;2.83;;;1.45;;
61252;SDS011;47127;47.516;8.596;2022-07-17T14:38:35;3.97;;;1.50;;
61252;SDS011;47127;47.516;8.596;2022-07-17T14:41:02;3.65;;;1.50;;
61252;SDS011;47127;47.516;8.596;2022-07-17T14:43:28;2.45;;;1.08;;
61252;SDS011;47127;47.516;8.596;2022-07-17T14:45:54;3.83;;;1.42;;
61252;SDS011;47127;47.516;8.596;2022-07-17T14:48:20;9.35;;;1.52;;
61252;SDS011;47127;47.516;8.596;2022-07-17T14:50:46;5.00;;;1.50;;
61252;SDS011;47127;47.516;8.596;2022-07-17T14:53:12;5.13;;;1.83;;
61252;SDS011;47127;47.516;8.596;2022-07-17T14:55:37;2.92;;;1.50;;
61252;SDS011;47127;47.516;8.596;2022-07-17T14:58:03;5.28;;;1.52;;
61252;SDS011;47127;47.516;8.596;2022-07-17T15:00:29;2.22;;;1.58;;